Portada
METAR-TAF:

METAR-TAF

Aeroports :

Kristianstad, Suècia

latitud: 55-55N, longitud: 014-05E, altitud: 23 m

Observació

L'informe es va fer fa 38 minuts, a les 01:50 UTC
Vent 9 kt del Oest/Nord-Oest
Temperatura 8°C
Humitat 93%
Pressió 1028 hPa
Visibilitat 10 km o més

METAR: ESMK 280150Z AUTO 29009KT 9999 NCD 08/07 Q1028

Hora: 04:28 (02:28 UTC)

Pronòstic

L'informe es va fer fa 15 hores i 23 minuts, a les 11:05 UTC
Pronòstic vàlid del 27 a les 12 UTC al 27 a les 15 UTC
Vent 12 kt del Oest/Nord-Oest
Visibilitat 10 km o més
Núvols disperses a una alçada de 2000 ft

TAF: ESMK 271105Z 2712/2715 30012KT 9999 SCT020

Observacions i pronòstics meteorològics de més de 4000 aeroports (METAR i TAF).

Les estacions disponibles són els punts grocs i vermells al mapa.

Posi el ratolí al punt desitjat per veure el nom de l'estació.

Feu clic per veure les observacions i els pronòstics meteorològics.

Per canviar el mapa: feu clic els botons verds amb una creu de color negre per apropar; al botó verd amb un guió per allunyar la imatge; o en les fletxes verdes per a mapes adjacents.


METAR-TAF: